sensor_id;sensor_type;location;lat;lon;timestamp;temperature;humidity
66871;DHT22;53780;44.998;9.926;2023-04-24T00:02:54;17.59;59.94
66871;DHT22;53780;44.998;9.926;2023-04-24T00:06:00;17.67;60.31
66871;DHT22;53780;44.998;9.926;2023-04-24T00:09:04;17.69;60.28
66871;DHT22;53780;44.998;9.926;2023-04-24T00:12:09;17.73;59.80
66871;DHT22;53780;44.998;9.926;2023-04-24T00:15:20;17.70;59.88
66871;DHT22;53780;44.998;9.926;2023-04-24T00:18:25;17.66;58.71
66871;DHT22;53780;44.998;9.926;2023-04-24T00:21:29;17.62;59.04
66871;DHT22;53780;44.998;9.926;2023-04-24T00:24:33;17.67;59.17
66871;DHT22;53780;44.998;9.926;2023-04-24T00:27:37;17.70;59.74
66871;DHT22;53780;44.998;9.926;2023-04-24T00:30:42;17.69;59.26
66871;DHT22;53780;44.998;9.926;2023-04-24T00:33:46;17.71;59.45
66871;DHT22;53780;44.998;9.926;2023-04-24T00:36:50;17.70;59.71
66871;DHT22;53780;44.998;9.926;2023-04-24T00:39:55;17.69;58.36
66871;DHT22;53780;44.998;9.926;2023-04-24T00:42:59;17.70;58.62
66871;DHT22;53780;44.998;9.926;2023-04-24T00:46:03;17.71;58.68
66871;DHT22;53780;44.998;9.926;2023-04-24T00:49:07;17.73;60.71
66871;DHT22;53780;44.998;9.926;2023-04-24T00:52:11;17.74;62.58
66871;DHT22;53780;44.998;9.926;2023-04-24T00:55:15;17.73;63.72
66871;DHT22;53780;44.998;9.926;2023-04-24T00:58:19;17.70;63.86
66871;DHT22;53780;44.998;9.926;2023-04-24T01:01:23;17.66;64.11
66871;DHT22;53780;44.998;9.926;2023-04-24T01:04:28;17.64;63.87
66871;DHT22;53780;44.998;9.926;2023-04-24T01:07:32;17.60;63.86
66871;DHT22;53780;44.998;9.926;2023-04-24T01:10:36;17.63;64.53
66871;DHT22;53780;44.998;9.926;2023-04-24T01:13:41;17.57;64.64
66871;DHT22;53780;44.998;9.926;2023-04-24T01:16:47;17.49;64.75
66871;DHT22;53780;44.998;9.926;2023-04-24T01:19:51;17.43;65.07
66871;DHT22;53780;44.998;9.926;2023-04-24T01:23:01;17.43;65.36
66871;DHT22;53780;44.998;9.926;2023-04-24T01:26:05;17.46;65.28
66871;DHT22;53780;44.998;9.926;2023-04-24T01:29:09;17.36;67.20
66871;DHT22;53780;44.998;9.926;2023-04-24T01:32:13;17.30;67.34
66871;DHT22;53780;44.998;9.926;2023-04-24T01:35:17;17.29;67.07
66871;DHT22;53780;44.998;9.926;2023-04-24T01:38:21;17.26;67.32
66871;DHT22;53780;44.998;9.926;2023-04-24T01:41:25;17.26;67.76
66871;DHT22;53780;44.998;9.926;2023-04-24T01:44:30;17.25;68.12
66871;DHT22;53780;44.998;9.926;2023-04-24T01:47:34;17.20;69.07
66871;DHT22;53780;44.998;9.926;2023-04-24T01:50:38;17.09;70.18
66871;DHT22;53780;44.998;9.926;2023-04-24T01:53:42;17.02;70.38
66871;DHT22;53780;44.998;9.926;2023-04-24T01:56:47;16.98;71.58
66871;DHT22;53780;44.998;9.926;2023-04-24T01:59:51;16.95;71.73
66871;DHT22;53780;44.998;9.926;2023-04-24T02:02:55;16.94;71.73
66871;DHT22;53780;44.998;9.926;2023-04-24T02:05:59;16.99;71.33
66871;DHT22;53780;44.998;9.926;2023-04-24T02:09:03;16.96;71.31
66871;DHT22;53780;44.998;9.926;2023-04-24T02:12:06;16.96;71.43
66871;DHT22;53780;44.998;9.926;2023-04-24T02:15:11;16.99;71.24
66871;DHT22;53780;44.998;9.926;2023-04-24T02:18:15;16.95;71.17
66871;DHT22;53780;44.998;9.926;2023-04-24T02:21:20;16.92;71.55
66871;DHT22;53780;44.998;9.926;2023-04-24T02:24:24;16.87;71.43
66871;DHT22;53780;44.998;9.926;2023-04-24T02:27:28;16.81;71.54
66871;DHT22;53780;44.998;9.926;2023-04-24T02:30:31;16.82;71.46
66871;DHT22;53780;44.998;9.926;2023-04-24T02:33:35;16.87;71.41
66871;DHT22;53780;44.998;9.926;2023-04-24T02:36:39;16.85;71.49
66871;DHT22;53780;44.998;9.926;2023-04-24T02:39:43;16.82;71.94
66871;DHT22;53780;44.998;9.926;2023-04-24T02:42:46;16.82;71.89
66871;DHT22;53780;44.998;9.926;2023-04-24T02:45:50;16.78;72.55
66871;DHT22;53780;44.998;9.926;2023-04-24T02:48:54;16.72;72.67
66871;DHT22;53780;44.998;9.926;2023-04-24T02:51:58;16.70;73.08
66871;DHT22;53780;44.998;9.926;2023-04-24T02:55:02;16.70;73.07
66871;DHT22;53780;44.998;9.926;2023-04-24T02:58:06;16.71;72.75
66871;DHT22;53780;44.998;9.926;2023-04-24T03:01:10;16.68;73.13
66871;DHT22;53780;44.998;9.926;2023-04-24T03:04:14;16.60;73.64
66871;DHT22;53780;44.998;9.926;2023-04-24T03:07:19;16.60;74.03
66871;DHT22;53780;44.998;9.926;2023-04-24T03:10:24;16.54;73.66
66871;DHT22;53780;44.998;9.926;2023-04-24T03:13:28;16.53;73.57
66871;DHT22;53780;44.998;9.926;2023-04-24T03:16:32;16.52;72.12
66871;DHT22;53780;44.998;9.926;2023-04-24T03:19:36;16.53;72.13
66871;DHT22;53780;44.998;9.926;2023-04-24T03:22:46;16.53;72.30
66871;DHT22;53780;44.998;9.926;2023-04-24T03:25:50;16.57;72.50
66871;DHT22;53780;44.998;9.926;2023-04-24T03:28:56;16.57;72.76
66871;DHT22;53780;44.998;9.926;2023-04-24T03:32:00;16.57;73.16
66871;DHT22;53780;44.998;9.926;2023-04-24T03:35:06;16.53;73.64
66871;DHT22;53780;44.998;9.926;2023-04-24T03:38:11;16.47;73.48
66871;DHT22;53780;44.998;9.926;2023-04-24T03:41:17;16.42;73.79
66871;DHT22;53780;44.998;9.926;2023-04-24T03:44:27;16.30;73.84
66871;DHT22;53780;44.998;9.926;2023-04-24T03:47:32;16.26;74.07
66871;DHT22;53780;44.998;9.926;2023-04-24T03:50:38;16.27;74.36
66871;DHT22;53780;44.998;9.926;2023-04-24T03:53:43;16.30;74.87
66871;DHT22;53780;44.998;9.926;2023-04-24T03:56:50;16.26;75.25
66871;DHT22;53780;44.998;9.926;2023-04-24T03:59:53;16.22;76.11
66871;DHT22;53780;44.998;9.926;2023-04-24T04:02:57;16.16;76.20
66871;DHT22;53780;44.998;9.926;2023-04-24T04:06:02;16.15;76.34
66871;DHT22;53780;44.998;9.926;2023-04-24T04:09:06;16.12;76.49
66871;DHT22;53780;44.998;9.926;2023-04-24T04:12:10;16.10;76.78
66871;DHT22;53780;44.998;9.926;2023-04-24T04:15:16;16.10;76.59
66871;DHT22;53780;44.998;9.926;2023-04-24T04:18:20;16.09;76.63
66871;DHT22;53780;44.998;9.926;2023-04-24T04:21:23;16.06;76.63
66871;DHT22;53780;44.998;9.926;2023-04-24T04:24:33;15.92;76.64
66871;DHT22;53780;44.998;9.926;2023-04-24T04:27:42;15.98;76.55
66871;DHT22;53780;44.998;9.926;2023-04-24T04:30:48;15.98;76.49
66871;DHT22;53780;44.998;9.926;2023-04-24T04:33:52;15.92;76.93
66871;DHT22;53780;44.998;9.926;2023-04-24T04:36:57;15.85;76.58
66871;DHT22;53780;44.998;9.926;2023-04-24T04:40:27;15.81;77.09
66871;DHT22;53780;44.998;9.926;2023-04-24T04:43:37;15.74;77.61
66871;DHT22;53780;44.998;9.926;2023-04-24T04:46:43;15.68;78.43
66871;DHT22;53780;44.998;9.926;2023-04-24T04:49:58;15.55;78.06
66871;DHT22;53780;44.998;9.926;2023-04-24T04:53:04;15.58;78.39
66871;DHT22;53780;44.998;9.926;2023-04-24T04:56:12;15.64;78.12
66871;DHT22;53780;44.998;9.926;2023-04-24T04:59:22;15.65;77.87
66871;DHT22;53780;44.998;9.926;2023-04-24T05:02:31;15.67;77.73
66871;DHT22;53780;44.998;9.926;2023-04-24T05:05:35;15.64;78.08
66871;DHT22;53780;44.998;9.926;2023-04-24T05:08:39;15.74;77.75
66871;DHT22;53780;44.998;9.926;2023-04-24T05:11:46;15.78;77.31
66871;DHT22;53780;44.998;9.926;2023-04-24T05:14:49;15.85;77.40
66871;DHT22;53780;44.998;9.926;2023-04-24T05:17:54;15.85;77.60
66871;DHT22;53780;44.998;9.926;2023-04-24T05:20:59;15.92;77.71
66871;DHT22;53780;44.998;9.926;2023-04-24T05:24:03;15.85;78.15
66871;DHT22;53780;44.998;9.926;2023-04-24T05:27:40;15.81;78.15
66871;DHT22;53780;44.998;9.926;2023-04-24T05:30:50;15.87;78.23
66871;DHT22;53780;44.998;9.926;2023-04-24T05:33:54;15.87;78.12
66871;DHT22;53780;44.998;9.926;2023-04-24T05:36:58;15.81;78.47
66871;DHT22;53780;44.998;9.926;2023-04-24T05:40:03;15.84;77.86
66871;DHT22;53780;44.998;9.926;2023-04-24T05:43:09;15.91;77.86
66871;DHT22;53780;44.998;9.926;2023-04-24T05:46:13;15.92;77.85
66871;DHT22;53780;44.998;9.926;2023-04-24T05:49:16;15.87;78.08
66871;DHT22;53780;44.998;9.926;2023-04-24T05:52:20;15.89;78.00
66871;DHT22;53780;44.998;9.926;2023-04-24T05:55:26;15.98;77.50
66871;DHT22;53780;44.998;9.926;2023-04-24T05:58:31;16.06;77.30
66871;DHT22;53780;44.998;9.926;2023-04-24T06:01:35;16.04;77.65
66871;DHT22;53780;44.998;9.926;2023-04-24T06:04:49;16.15;77.16
66871;DHT22;53780;44.998;9.926;2023-04-24T06:07:55;16.19;77.07
66871;DHT22;53780;44.998;9.926;2023-04-24T06:11:02;16.29;76.49
66871;DHT22;53780;44.998;9.926;2023-04-24T06:14:06;16.92;74.60
66871;DHT22;53780;44.998;9.926;2023-04-24T06:17:35;17.66;72.31
66871;DHT22;53780;44.998;9.926;2023-04-24T06:20:39;18.28;70.04
66871;DHT22;53780;44.998;9.926;2023-04-24T06:23:46;18.88;66.96
66871;DHT22;53780;44.998;9.926;2023-04-24T06:26:52;19.04;66.69
66871;DHT22;53780;44.998;9.926;2023-04-24T06:29:56;18.83;67.80
66871;DHT22;53780;44.998;9.926;2023-04-24T06:32:59;18.57;68.46
66871;DHT22;53780;44.998;9.926;2023-04-24T06:36:03;18.43;69.12
66871;DHT22;53780;44.998;9.926;2023-04-24T06:39:07;18.68;68.71
66871;DHT22;53780;44.998;9.926;2023-04-24T06:42:11;19.07;67.59
66871;DHT22;53780;44.998;9.926;2023-04-24T06:45:15;20.42;63.04
66871;DHT22;53780;44.998;9.926;2023-04-24T06:48:19;22.45;58.53
66871;DHT22;53780;44.998;9.926;2023-04-24T06:51:26;24.17;52.18
66871;DHT22;53780;44.998;9.926;2023-04-24T06:54:30;25.04;50.49
66871;DHT22;53780;44.998;9.926;2023-04-24T06:57:36;26.57;47.89
66871;DHT22;53780;44.998;9.926;2023-04-24T07:00:39;28.34;43.65
66871;DHT22;53780;44.998;9.926;2023-04-24T07:03:43;30.24;39.73
66871;DHT22;53780;44.998;9.926;2023-04-24T07:06:47;31.73;37.22
66871;DHT22;53780;44.998;9.926;2023-04-24T07:09:52;33.14;35.14
66871;DHT22;53780;44.998;9.926;2023-04-24T07:12:56;34.33;32.72
66871;DHT22;53780;44.998;9.926;2023-04-24T07:16:00;34.72;30.70
66871;DHT22;53780;44.998;9.926;2023-04-24T07:19:06;35.48;30.21
66871;DHT22;53780;44.998;9.926;2023-04-24T07:22:10;36.96;28.34
66871;DHT22;53780;44.998;9.926;2023-04-24T07:25:20;38.08;27.19
66871;DHT22;53780;44.998;9.926;2023-04-24T07:28:24;38.90;26.93
66871;DHT22;53780;44.998;9.926;2023-04-24T07:31:28;39.49;26.49
66871;DHT22;53780;44.998;9.926;2023-04-24T07:34:32;38.87;26.83
66871;DHT22;53780;44.998;9.926;2023-04-24T07:37:36;36.90;28.40
66871;DHT22;53780;44.998;9.926;2023-04-24T07:40:40;37.74;27.30
66871;DHT22;53780;44.998;9.926;2023-04-24T07:43:44;37.59;27.90
66871;DHT22;53780;44.998;9.926;2023-04-24T07:46:48;37.95;27.62
66871;DHT22;53780;44.998;9.926;2023-04-24T07:49:51;38.73;26.98
66871;DHT22;53780;44.998;9.926;2023-04-24T07:52:55;38.70;26.34
66871;DHT22;53780;44.998;9.926;2023-04-24T07:55:59;38.63;26.93
66871;DHT22;53780;44.998;9.926;2023-04-24T07:59:03;38.59;26.78
66871;DHT22;53780;44.998;9.926;2023-04-24T08:02:07;39.52;26.19
66871;DHT22;53780;44.998;9.926;2023-04-24T08:05:11;38.79;26.63
66871;DHT22;53780;44.998;9.926;2023-04-24T08:08:15;39.00;27.13
66871;DHT22;53780;44.998;9.926;2023-04-24T08:11:18;38.76;26.69
66871;DHT22;53780;44.998;9.926;2023-04-24T08:14:22;37.03;29.10
66871;DHT22;53780;44.998;9.926;2023-04-24T08:17:26;33.96;32.03
66871;DHT22;53780;44.998;9.926;2023-04-24T08:20:30;32.74;34.53
66871;DHT22;53780;44.998;9.926;2023-04-24T08:23:34;36.85;29.15
66871;DHT22;53780;44.998;9.926;2023-04-24T08:26:37;34.54;31.39
66871;DHT22;53780;44.998;9.926;2023-04-24T08:29:41;33.65;33.65
66871;DHT22;53780;44.998;9.926;2023-04-24T08:32:45;34.33;32.33
66871;DHT22;53780;44.998;9.926;2023-04-24T08:35:49;30.61;36.68
66871;DHT22;53780;44.998;9.926;2023-04-24T08:38:53;33.04;34.05
66871;DHT22;53780;44.998;9.926;2023-04-24T08:41:57;37.69;27.57
66871;DHT22;53780;44.998;9.926;2023-04-24T08:45:09;40.84;24.38
66871;DHT22;53780;44.998;9.926;2023-04-24T08:48:14;43.38;22.95
66871;DHT22;53780;44.998;9.926;2023-04-24T08:51:19;42.94;24.30
66871;DHT22;53780;44.998;9.926;2023-04-24T08:54:24;39.72;26.07
66871;DHT22;53780;44.998;9.926;2023-04-24T08:57:29;38.97;25.80
66871;DHT22;53780;44.998;9.926;2023-04-24T09:00:34;40.75;25.45
66871;DHT22;53780;44.998;9.926;2023-04-24T09:03:39;41.54;24.10
66871;DHT22;53780;44.998;9.926;2023-04-24T09:06:43;40.71;24.53
66871;DHT22;53780;44.998;9.926;2023-04-24T09:09:50;40.55;26.57
66871;DHT22;53780;44.998;9.926;2023-04-24T09:12:54;43.05;22.82
66871;DHT22;53780;44.998;9.926;2023-04-24T09:15:59;42.94;22.86
66871;DHT22;53780;44.998;9.926;2023-04-24T09:19:04;43.53;22.39
66871;DHT22;53780;44.998;9.926;2023-04-24T09:22:09;41.77;24.70
66871;DHT22;53780;44.998;9.926;2023-04-24T09:25:12;43.29;23.51
66871;DHT22;53780;44.998;9.926;2023-04-24T09:28:16;42.51;22.59
66871;DHT22;53780;44.998;9.926;2023-04-24T09:31:20;38.94;26.56
66871;DHT22;53780;44.998;9.926;2023-04-24T09:34:27;40.64;24.76
66871;DHT22;53780;44.998;9.926;2023-04-24T09:37:38;42.64;22.99
66871;DHT22;53780;44.998;9.926;2023-04-24T09:40:41;41.06;23.99
66871;DHT22;53780;44.998;9.926;2023-04-24T09:43:45;41.60;23.90
66871;DHT22;53780;44.998;9.926;2023-04-24T09:46:59;40.84;24.71
66871;DHT22;53780;44.998;9.926;2023-04-24T09:50:15;42.22;24.39
66871;DHT22;53780;44.998;9.926;2023-04-24T09:53:23;42.45;24.19
66871;DHT22;53780;44.998;9.926;2023-04-24T09:56:27;40.99;24.91
66871;DHT22;53780;44.998;9.926;2023-04-24T09:59:32;42.26;23.64
66871;DHT22;53780;44.998;9.926;2023-04-24T10:02:35;43.86;22.60
66871;DHT22;53780;44.998;9.926;2023-04-24T10:05:39;42.91;23.21
66871;DHT22;53780;44.998;9.926;2023-04-24T10:08:45;41.57;23.85
66871;DHT22;53780;44.998;9.926;2023-04-24T10:11:51;42.92;22.43
66871;DHT22;53780;44.998;9.926;2023-04-24T10:14:55;44.54;21.19
66871;DHT22;53780;44.998;9.926;2023-04-24T10:17:59;44.57;20.48
66871;DHT22;53780;44.998;9.926;2023-04-24T10:21:03;43.62;22.16
66871;DHT22;53780;44.998;9.926;2023-04-24T10:24:08;43.34;22.72
66871;DHT22;53780;44.998;9.926;2023-04-24T10:27:13;41.73;24.10
66871;DHT22;53780;44.998;9.926;2023-04-24T10:30:19;41.95;23.70
66871;DHT22;53780;44.998;9.926;2023-04-24T10:33:25;41.88;23.59
66871;DHT22;53780;44.998;9.926;2023-04-24T10:36:30;40.81;24.13
66871;DHT22;53780;44.998;9.926;2023-04-24T10:39:36;39.81;26.02
66871;DHT22;53780;44.998;9.926;2023-04-24T10:42:41;40.88;24.99
66871;DHT22;53780;44.998;9.926;2023-04-24T10:46:01;40.64;25.17
66871;DHT22;53780;44.998;9.926;2023-04-24T10:49:06;40.48;24.40
66871;DHT22;53780;44.998;9.926;2023-04-24T10:52:12;40.13;25.27
66871;DHT22;53780;44.998;9.926;2023-04-24T10:58:51;40.72;25.20
66871;DHT22;53780;44.998;9.926;2023-04-24T11:01:56;39.96;25.39
66871;DHT22;53780;44.998;9.926;2023-04-24T11:05:03;40.06;25.86
66871;DHT22;53780;44.998;9.926;2023-04-24T11:08:15;39.10;25.69
66871;DHT22;53780;44.998;9.926;2023-04-24T11:11:19;38.35;26.34
66871;DHT22;53780;44.998;9.926;2023-04-24T11:14:25;37.40;27.06
66871;DHT22;53780;44.998;9.926;2023-04-24T11:17:33;36.19;28.66
66871;DHT22;53780;44.998;9.926;2023-04-24T11:20:42;34.31;31.82
66871;DHT22;53780;44.998;9.926;2023-04-24T11:23:46;33.33;32.48
66871;DHT22;53780;44.998;9.926;2023-04-24T11:30:03;31.70;34.86
66871;DHT22;53780;44.998;9.926;2023-04-24T11:33:09;31.06;36.71
66871;DHT22;53780;44.998;9.926;2023-04-24T11:36:13;30.30;37.53
66871;DHT22;53780;44.998;9.926;2023-04-24T11:39:17;29.82;39.42
66871;DHT22;53780;44.998;9.926;2023-04-24T11:42:22;29.62;40.29
66871;DHT22;53780;44.998;9.926;2023-04-24T11:45:28;29.47;40.86
66871;DHT22;53780;44.998;9.926;2023-04-24T11:48:35;29.27;38.97
66871;DHT22;53780;44.998;9.926;2023-04-24T11:51:43;28.66;38.84
66871;DHT22;53780;44.998;9.926;2023-04-24T11:54:50;28.69;38.61
66871;DHT22;53780;44.998;9.926;2023-04-24T11:57:56;28.49;38.00
66871;DHT22;53780;44.998;9.926;2023-04-24T12:01:00;28.37;35.81
66871;DHT22;53780;44.998;9.926;2023-04-24T12:04:04;28.52;39.92
66871;DHT22;53780;44.998;9.926;2023-04-24T12:07:09;28.52;40.57
66871;DHT22;53780;44.998;9.926;2023-04-24T12:10:13;28.37;39.44
66871;DHT22;53780;44.998;9.926;2023-04-24T12:13:18;28.41;40.90
66871;DHT22;53780;44.998;9.926;2023-04-24T12:16:22;28.31;40.64
66871;DHT22;53780;44.998;9.926;2023-04-24T12:19:29;28.01;40.82
66871;DHT22;53780;44.998;9.926;2023-04-24T12:22:46;27.79;39.97
66871;DHT22;53780;44.998;9.926;2023-04-24T12:25:50;27.65;42.39
66871;DHT22;53780;44.998;9.926;2023-04-24T12:28:55;27.58;42.00
66871;DHT22;53780;44.998;9.926;2023-04-24T12:31:58;27.48;42.89
66871;DHT22;53780;44.998;9.926;2023-04-24T12:35:04;27.69;42.45
66871;DHT22;53780;44.998;9.926;2023-04-24T12:38:11;27.56;41.70
66871;DHT22;53780;44.998;9.926;2023-04-24T12:41:18;27.34;40.46
66871;DHT22;53780;44.998;9.926;2023-04-24T12:44:33;27.21;43.24
66871;DHT22;53780;44.998;9.926;2023-04-24T12:47:38;27.14;43.75
66871;DHT22;53780;44.998;9.926;2023-04-24T12:50:43;26.98;40.32
66871;DHT22;53780;44.998;9.926;2023-04-24T12:53:47;26.76;42.93
66871;DHT22;53780;44.998;9.926;2023-04-24T12:56:51;26.79;40.92
66871;DHT22;53780;44.998;9.926;2023-04-24T12:59:56;26.70;42.05
66871;DHT22;53780;44.998;9.926;2023-04-24T13:03:00;26.60;42.23
66871;DHT22;53780;44.998;9.926;2023-04-24T13:06:04;26.57;43.05
66871;DHT22;53780;44.998;9.926;2023-04-24T13:09:08;26.61;43.61
66871;DHT22;53780;44.998;9.926;2023-04-24T13:12:13;26.53;41.54
66871;DHT22;53780;44.998;9.926;2023-04-24T13:15:17;26.48;43.15
66871;DHT22;53780;44.998;9.926;2023-04-24T13:18:21;26.43;41.86
66871;DHT22;53780;44.998;9.926;2023-04-24T13:21:25;26.33;40.47
66871;DHT22;53780;44.998;9.926;2023-04-24T13:24:29;26.26;40.27
66871;DHT22;53780;44.998;9.926;2023-04-24T13:27:34;26.29;41.45
66871;DHT22;53780;44.998;9.926;2023-04-24T13:30:38;26.17;39.86
66871;DHT22;53780;44.998;9.926;2023-04-24T13:33:42;26.15;37.20
66871;DHT22;53780;44.998;9.926;2023-04-24T13:36:46;26.05;37.69
66871;DHT22;53780;44.998;9.926;2023-04-24T13:39:50;25.92;35.77
66871;DHT22;53780;44.998;9.926;2023-04-24T13:42:54;25.84;35.32
66871;DHT22;53780;44.998;9.926;2023-04-24T13:45:58;25.77;33.94
66871;DHT22;53780;44.998;9.926;2023-04-24T13:49:03;25.75;35.94
66871;DHT22;53780;44.998;9.926;2023-04-24T13:52:07;25.74;35.65
66871;DHT22;53780;44.998;9.926;2023-04-24T13:55:11;25.64;31.11
66871;DHT22;53780;44.998;9.926;2023-04-24T13:58:15;25.62;33.66
66871;DHT22;53780;44.998;9.926;2023-04-24T14:01:19;25.56;35.16
66871;DHT22;53780;44.998;9.926;2023-04-24T14:04:24;25.47;38.44
66871;DHT22;53780;44.998;9.926;2023-04-24T14:07:29;25.46;37.42
66871;DHT22;53780;44.998;9.926;2023-04-24T14:10:32;25.32;32.43
66871;DHT22;53780;44.998;9.926;2023-04-24T14:13:37;25.30;34.92
66871;DHT22;53780;44.998;9.926;2023-04-24T14:16:44;25.23;35.66
66871;DHT22;53780;44.998;9.926;2023-04-24T14:19:49;25.20;33.36
66871;DHT22;53780;44.998;9.926;2023-04-24T14:22:55;25.16;32.05
66871;DHT22;53780;44.998;9.926;2023-04-24T14:26:02;25.08;32.14
66871;DHT22;53780;44.998;9.926;2023-04-24T14:29:06;25.05;33.50
66871;DHT22;53780;44.998;9.926;2023-04-24T14:32:10;24.99;31.55
66871;DHT22;53780;44.998;9.926;2023-04-24T14:35:14;24.98;31.53
66871;DHT22;53780;44.998;9.926;2023-04-24T14:38:18;24.95;34.22
66871;DHT22;53780;44.998;9.926;2023-04-24T14:41:22;24.91;35.87
66871;DHT22;53780;44.998;9.926;2023-04-24T14:44:25;24.88;26.79
66871;DHT22;53780;44.998;9.926;2023-04-24T14:47:29;24.78;31.10
66871;DHT22;53780;44.998;9.926;2023-04-24T14:50:33;24.81;32.57
66871;DHT22;53780;44.998;9.926;2023-04-24T14:53:37;24.81;33.52
66871;DHT22;53780;44.998;9.926;2023-04-24T14:56:41;24.78;33.14
66871;DHT22;53780;44.998;9.926;2023-04-24T14:59:46;24.71;37.38
66871;DHT22;53780;44.998;9.926;2023-04-24T15:02:50;24.71;34.24
66871;DHT22;53780;44.998;9.926;2023-04-24T15:05:54;24.67;34.31
66871;DHT22;53780;44.998;9.926;2023-04-24T15:08:58;24.71;31.94
66871;DHT22;53780;44.998;9.926;2023-04-24T15:12:02;24.68;33.36
66871;DHT22;53780;44.998;9.926;2023-04-24T15:15:07;24.60;36.03
66871;DHT22;53780;44.998;9.926;2023-04-24T15:18:11;24.52;34.04
66871;DHT22;53780;44.998;9.926;2023-04-24T15:21:15;24.47;32.99
66871;DHT22;53780;44.998;9.926;2023-04-24T15:24:19;24.40;31.20
66871;DHT22;53780;44.998;9.926;2023-04-24T15:27:23;24.40;34.31
66871;DHT22;53780;44.998;9.926;2023-04-24T15:30:28;24.40;33.90
66871;DHT22;53780;44.998;9.926;2023-04-24T15:33:32;24.39;33.86
66871;DHT22;53780;44.998;9.926;2023-04-24T15:36:36;24.34;34.34
66871;DHT22;53780;44.998;9.926;2023-04-24T15:39:40;24.30;33.48
66871;DHT22;53780;44.998;9.926;2023-04-24T15:42:44;24.25;36.02
66871;DHT22;53780;44.998;9.926;2023-04-24T15:45:49;24.19;33.81
66871;DHT22;53780;44.998;9.926;2023-04-24T15:48:53;24.17;36.03
66871;DHT22;53780;44.998;9.926;2023-04-24T15:51:57;24.13;35.25
66871;DHT22;53780;44.998;9.926;2023-04-24T15:55:03;24.06;35.56
66871;DHT22;53780;44.998;9.926;2023-04-24T15:58:07;24.08;38.27
66871;DHT22;53780;44.998;9.926;2023-04-24T16:01:11;24.04;39.82
66871;DHT22;53780;44.998;9.926;2023-04-24T16:04:15;23.99;34.74
66871;DHT22;53780;44.998;9.926;2023-04-24T16:07:19;23.98;33.69
66871;DHT22;53780;44.998;9.926;2023-04-24T16:10:22;23.95;38.72
66871;DHT22;53780;44.998;9.926;2023-04-24T16:13:26;23.85;38.23
66871;DHT22;53780;44.998;9.926;2023-04-24T16:16:31;23.75;41.33
66871;DHT22;53780;44.998;9.926;2023-04-24T16:19:35;23.65;37.72
66871;DHT22;53780;44.998;9.926;2023-04-24T16:22:39;23.61;33.23
66871;DHT22;53780;44.998;9.926;2023-04-24T16:25:43;23.64;35.52
66871;DHT22;53780;44.998;9.926;2023-04-24T16:28:47;23.64;37.98
66871;DHT22;53780;44.998;9.926;2023-04-24T16:31:50;23.58;37.90
66871;DHT22;53780;44.998;9.926;2023-04-24T16:34:54;23.53;36.20
66871;DHT22;53780;44.998;9.926;2023-04-24T16:37:58;23.51;33.13
66871;DHT22;53780;44.998;9.926;2023-04-24T16:41:01;23.50;36.72
66871;DHT22;53780;44.998;9.926;2023-04-24T16:44:07;23.44;34.50
66871;DHT22;53780;44.998;9.926;2023-04-24T16:47:11;23.46;31.35
66871;DHT22;53780;44.998;9.926;2023-04-24T16:50:17;23.40;31.25
66871;DHT22;53780;44.998;9.926;2023-04-24T16:53:20;23.39;29.47
66871;DHT22;53780;44.998;9.926;2023-04-24T16:56:24;23.36;30.49
66871;DHT22;53780;44.998;9.926;2023-04-24T16:59:31;23.47;32.20
66871;DHT22;53780;44.998;9.926;2023-04-24T17:02:36;23.36;34.89
66871;DHT22;53780;44.998;9.926;2023-04-24T17:05:40;23.26;33.02
66871;DHT22;53780;44.998;9.926;2023-04-24T17:08:44;23.14;33.46
66871;DHT22;53780;44.998;9.926;2023-04-24T17:11:48;23.05;32.77
66871;DHT22;53780;44.998;9.926;2023-04-24T17:14:52;22.95;33.90
66871;DHT22;53780;44.998;9.926;2023-04-24T17:17:56;22.86;33.48
66871;DHT22;53780;44.998;9.926;2023-04-24T17:21:00;22.68;32.67
66871;DHT22;53780;44.998;9.926;2023-04-24T17:24:05;22.62;33.15
66871;DHT22;53780;44.998;9.926;2023-04-24T17:27:09;22.52;32.55
66871;DHT22;53780;44.998;9.926;2023-04-24T17:30:14;22.44;33.37
66871;DHT22;53780;44.998;9.926;2023-04-24T17:33:18;22.38;32.58
66871;DHT22;53780;44.998;9.926;2023-04-24T17:36:21;22.41;32.51
66871;DHT22;53780;44.998;9.926;2023-04-24T17:39:25;22.62;32.53
66871;DHT22;53780;44.998;9.926;2023-04-24T17:42:29;22.59;33.43
66871;DHT22;53780;44.998;9.926;2023-04-24T17:45:33;22.41;34.48
66871;DHT22;53780;44.998;9.926;2023-04-24T17:48:38;22.67;33.08
66871;DHT22;53780;44.998;9.926;2023-04-24T17:51:41;22.48;38.61
66871;DHT22;53780;44.998;9.926;2023-04-24T17:54:45;22.16;41.00
66871;DHT22;53780;44.998;9.926;2023-04-24T17:57:52;22.06;42.55
66871;DHT22;53780;44.998;9.926;2023-04-24T18:00:55;21.79;44.23
66871;DHT22;53780;44.998;9.926;2023-04-24T18:04:00;21.58;45.37
66871;DHT22;53780;44.998;9.926;2023-04-24T18:07:03;21.41;46.16
66871;DHT22;53780;44.998;9.926;2023-04-24T18:10:08;21.42;46.74
66871;DHT22;53780;44.998;9.926;2023-04-24T18:13:12;21.14;47.88
66871;DHT22;53780;44.998;9.926;2023-04-24T18:16:16;20.93;48.96
66871;DHT22;53780;44.998;9.926;2023-04-24T18:19:20;20.76;49.49
66871;DHT22;53780;44.998;9.926;2023-04-24T18:22:23;20.66;50.24
66871;DHT22;53780;44.998;9.926;2023-04-24T18:25:27;20.55;50.84
66871;DHT22;53780;44.998;9.926;2023-04-24T18:28:31;20.49;51.21
66871;DHT22;53780;44.998;9.926;2023-04-24T18:31:37;20.55;50.95
66871;DHT22;53780;44.998;9.926;2023-04-24T18:34:41;20.20;51.84
66871;DHT22;53780;44.998;9.926;2023-04-24T18:37:45;20.10;51.94
66871;DHT22;53780;44.998;9.926;2023-04-24T18:40:49;20.01;51.76
66871;DHT22;53780;44.998;9.926;2023-04-24T18:43:52;19.94;51.62
66871;DHT22;53780;44.998;9.926;2023-04-24T18:47:00;19.84;51.92
66871;DHT22;53780;44.998;9.926;2023-04-24T18:50:04;19.94;51.61
66871;DHT22;53780;44.998;9.926;2023-04-24T18:53:08;19.94;52.44
66871;DHT22;53780;44.998;9.926;2023-04-24T18:56:14;19.70;52.86
66871;DHT22;53780;44.998;9.926;2023-04-24T18:59:19;19.56;53.46
66871;DHT22;53780;44.998;9.926;2023-04-24T19:02:23;19.41;54.45
66871;DHT22;53780;44.998;9.926;2023-04-24T19:05:27;19.14;54.70
66871;DHT22;53780;44.998;9.926;2023-04-24T19:08:31;18.90;55.20
66871;DHT22;53780;44.998;9.926;2023-04-24T19:11:35;18.88;54.49
66871;DHT22;53780;44.998;9.926;2023-04-24T19:14:39;19.01;54.18
66871;DHT22;53780;44.998;9.926;2023-04-24T19:17:42;19.01;54.13
66871;DHT22;53780;44.998;9.926;2023-04-24T19:20:46;18.97;54.80
66871;DHT22;53780;44.998;9.926;2023-04-24T19:23:49;19.07;56.91
66871;DHT22;53780;44.998;9.926;2023-04-24T19:26:55;19.16;55.20
66871;DHT22;53780;44.998;9.926;2023-04-24T19:29:59;19.28;54.14
66871;DHT22;53780;44.998;9.926;2023-04-24T19:33:03;19.39;53.62
66871;DHT22;53780;44.998;9.926;2023-04-24T19:36:07;19.43;53.27